sensor_id;sensor_type;location;lat;lon;timestamp;P1;durP1;ratioP1;P2;durP2;ratioP2
26540;SDS011;14206;50.202;10.948;2022-08-19T00:02:01;3.85;;;3.55;;
26540;SDS011;14206;50.202;10.948;2022-08-19T00:04:30;4.07;;;3.78;;
26540;SDS011;14206;50.202;10.948;2022-08-19T00:07:01;3.83;;;3.53;;
26540;SDS011;14206;50.202;10.948;2022-08-19T00:09:30;3.80;;;3.50;;
26540;SDS011;14206;50.202;10.948;2022-08-19T00:11:57;4.00;;;3.70;;
26540;SDS011;14206;50.202;10.948;2022-08-19T00:14:26;5.25;;;4.13;;
26540;SDS011;14206;50.202;10.948;2022-08-19T00:16:53;4.35;;;4.03;;
26540;SDS011;14206;50.202;10.948;2022-08-19T00:19:21;5.05;;;4.65;;
26540;SDS011;14206;50.202;10.948;2022-08-19T00:21:50;4.90;;;4.50;;
26540;SDS011;14206;50.202;10.948;2022-08-19T00:24:17;4.80;;;4.40;;
26540;SDS011;14206;50.202;10.948;2022-08-19T00:26:45;4.50;;;4.10;;
26540;SDS011;14206;50.202;10.948;2022-08-19T00:29:13;4.47;;;4.07;;
26540;SDS011;14206;50.202;10.948;2022-08-19T00:31:43;4.43;;;4.03;;
26540;SDS011;14206;50.202;10.948;2022-08-19T00:34:11;4.60;;;4.20;;
26540;SDS011;14206;50.202;10.948;2022-08-19T00:36:40;4.43;;;4.03;;
26540;SDS011;14206;50.202;10.948;2022-08-19T00:39:08;4.47;;;4.07;;
26540;SDS011;14206;50.202;10.948;2022-08-19T00:41:35;4.40;;;4.00;;
26540;SDS011;14206;50.202;10.948;2022-08-19T00:44:08;4.68;;;4.22;;
26540;SDS011;14206;50.202;10.948;2022-08-19T00:46:46;4.20;;;3.90;;
26540;SDS011;14206;50.202;10.948;2022-08-19T00:52:01;4.50;;;4.10;;
26540;SDS011;14206;50.202;10.948;2022-08-19T00:54:38;5.78;;;5.28;;
26540;SDS011;14206;50.202;10.948;2022-08-19T00:57:07;7.90;;;7.18;;
26540;SDS011;14206;50.202;10.948;2022-08-19T00:59:42;9.75;;;8.75;;
26540;SDS011;14206;50.202;10.948;2022-08-19T01:02:28;8.95;;;7.82;;
26540;SDS011;14206;50.202;10.948;2022-08-19T01:04:55;7.63;;;6.93;;
26540;SDS011;14206;50.202;10.948;2022-08-19T01:07:23;8.00;;;7.20;;
26540;SDS011;14206;50.202;10.948;2022-08-19T01:09:50;6.65;;;6.05;;
26540;SDS011;14206;50.202;10.948;2022-08-19T01:12:17;7.32;;;6.63;;
26540;SDS011;14206;50.202;10.948;2022-08-19T01:14:45;7.63;;;6.90;;
26540;SDS011;14206;50.202;10.948;2022-08-19T01:17:13;6.75;;;6.15;;
26540;SDS011;14206;50.202;10.948;2022-08-19T01:19:43;6.55;;;5.95;;
26540;SDS011;14206;50.202;10.948;2022-08-19T01:22:15;5.93;;;5.43;;
26540;SDS011;14206;50.202;10.948;2022-08-19T01:24:58;6.30;;;5.60;;
26540;SDS011;14206;50.202;10.948;2022-08-19T01:27:26;6.18;;;5.53;;
26540;SDS011;14206;50.202;10.948;2022-08-19T01:30:00;6.57;;;5.38;;
26540;SDS011;14206;50.202;10.948;2022-08-19T01:32:27;5.53;;;5.03;;
26540;SDS011;14206;50.202;10.948;2022-08-19T01:34:59;5.38;;;4.88;;
26540;SDS011;14206;50.202;10.948;2022-08-19T01:37:40;6.13;;;5.18;;
26540;SDS011;14206;50.202;10.948;2022-08-19T01:40:11;5.93;;;5.32;;
26540;SDS011;14206;50.202;10.948;2022-08-19T01:42:39;6.75;;;5.32;;
26540;SDS011;14206;50.202;10.948;2022-08-19T01:45:07;6.00;;;5.40;;
26540;SDS011;14206;50.202;10.948;2022-08-19T01:47:37;8.20;;;7.40;;
26540;SDS011;14206;50.202;10.948;2022-08-19T01:50:07;8.30;;;6.47;;
26540;SDS011;14206;50.202;10.948;2022-08-19T01:52:36;9.20;;;8.23;;
26540;SDS011;14206;50.202;10.948;2022-08-19T01:55:04;7.47;;;6.75;;
26540;SDS011;14206;50.202;10.948;2022-08-19T01:57:34;8.82;;;7.93;;
26540;SDS011;14206;50.202;10.948;2022-08-19T02:00:02;7.95;;;7.05;;
26540;SDS011;14206;50.202;10.948;2022-08-19T02:02:36;7.82;;;7.03;;
26540;SDS011;14206;50.202;10.948;2022-08-19T02:05:04;8.40;;;7.60;;
26540;SDS011;14206;50.202;10.948;2022-08-19T02:07:35;7.45;;;6.75;;
26540;SDS011;14206;50.202;10.948;2022-08-19T02:10:08;6.45;;;5.82;;
26540;SDS011;14206;50.202;10.948;2022-08-19T02:12:38;6.53;;;5.85;;
26540;SDS011;14206;50.202;10.948;2022-08-19T02:15:06;6.70;;;6.00;;
26540;SDS011;14206;50.202;10.948;2022-08-19T02:17:33;6.07;;;5.47;;
26540;SDS011;14206;50.202;10.948;2022-08-19T02:20:01;8.15;;;7.35;;
26540;SDS011;14206;50.202;10.948;2022-08-19T02:22:28;9.88;;;8.88;;
26540;SDS011;14206;50.202;10.948;2022-08-19T02:24:55;9.85;;;8.85;;
26540;SDS011;14206;50.202;10.948;2022-08-19T02:27:22;10.45;;;9.25;;
26540;SDS011;14206;50.202;10.948;2022-08-19T02:29:50;9.77;;;8.77;;
26540;SDS011;14206;50.202;10.948;2022-08-19T02:32:17;9.80;;;7.70;;
26540;SDS011;14206;50.202;10.948;2022-08-19T02:34:46;8.85;;;7.95;;
26540;SDS011;14206;50.202;10.948;2022-08-19T02:37:13;10.38;;;9.15;;
26540;SDS011;14206;50.202;10.948;2022-08-19T02:40:00;8.75;;;7.80;;
26540;SDS011;14206;50.202;10.948;2022-08-19T02:42:28;8.43;;;7.55;;
26540;SDS011;14206;50.202;10.948;2022-08-19T02:44:55;7.65;;;6.78;;
26540;SDS011;14206;50.202;10.948;2022-08-19T02:47:22;8.35;;;7.43;;
26540;SDS011;14206;50.202;10.948;2022-08-19T02:49:49;7.25;;;6.55;;
26540;SDS011;14206;50.202;10.948;2022-08-19T02:52:16;8.07;;;7.07;;
26540;SDS011;14206;50.202;10.948;2022-08-19T02:54:43;9.75;;;8.75;;
26540;SDS011;14206;50.202;10.948;2022-08-19T02:57:10;11.90;;;10.65;;
26540;SDS011;14206;50.202;10.948;2022-08-19T02:59:37;12.18;;;10.13;;
26540;SDS011;14206;50.202;10.948;2022-08-19T03:02:05;10.50;;;9.13;;
26540;SDS011;14206;50.202;10.948;2022-08-19T03:04:32;9.20;;;8.10;;
26540;SDS011;14206;50.202;10.948;2022-08-19T03:06:58;9.65;;;8.65;;
26540;SDS011;14206;50.202;10.948;2022-08-19T03:09:37;8.88;;;7.82;;
26540;SDS011;14206;50.202;10.948;2022-08-19T03:12:04;10.48;;;9.32;;
26540;SDS011;14206;50.202;10.948;2022-08-19T03:14:32;10.23;;;9.13;;
26540;SDS011;14206;50.202;10.948;2022-08-19T03:17:00;9.05;;;7.72;;
26540;SDS011;14206;50.202;10.948;2022-08-19T03:19:27;8.38;;;7.47;;
26540;SDS011;14206;50.202;10.948;2022-08-19T03:21:54;8.63;;;7.28;;
26540;SDS011;14206;50.202;10.948;2022-08-19T03:24:21;8.13;;;7.32;;
26540;SDS011;14206;50.202;10.948;2022-08-19T03:26:50;8.52;;;7.63;;
26540;SDS011;14206;50.202;10.948;2022-08-19T03:29:19;8.27;;;6.72;;
26540;SDS011;14206;50.202;10.948;2022-08-19T03:31:56;8.88;;;7.85;;
26540;SDS011;14206;50.202;10.948;2022-08-19T03:34:31;7.60;;;6.70;;
26540;SDS011;14206;50.202;10.948;2022-08-19T03:37:03;9.30;;;8.30;;
26540;SDS011;14206;50.202;10.948;2022-08-19T03:39:35;8.40;;;7.43;;
26540;SDS011;14206;50.202;10.948;2022-08-19T03:42:03;7.88;;;7.07;;
26540;SDS011;14206;50.202;10.948;2022-08-19T03:44:51;8.05;;;6.97;;
26540;SDS011;14206;50.202;10.948;2022-08-19T03:47:18;8.13;;;7.32;;
26540;SDS011;14206;50.202;10.948;2022-08-19T03:49:45;10.70;;;9.05;;
26540;SDS011;14206;50.202;10.948;2022-08-19T03:52:12;8.93;;;7.53;;
26540;SDS011;14206;50.202;10.948;2022-08-19T03:54:40;8.75;;;7.57;;
26540;SDS011;14206;50.202;10.948;2022-08-19T03:57:07;7.55;;;6.82;;
26540;SDS011;14206;50.202;10.948;2022-08-19T03:59:35;7.25;;;6.50;;
26540;SDS011;14206;50.202;10.948;2022-08-19T04:02:06;7.03;;;6.32;;
26540;SDS011;14206;50.202;10.948;2022-08-19T04:04:37;7.43;;;6.43;;
26540;SDS011;14206;50.202;10.948;2022-08-19T04:07:05;8.07;;;6.50;;
26540;SDS011;14206;50.202;10.948;2022-08-19T04:09:33;7.75;;;6.45;;
26540;SDS011;14206;50.202;10.948;2022-08-19T04:12:00;7.57;;;6.78;;
26540;SDS011;14206;50.202;10.948;2022-08-19T04:14:28;8.35;;;7.30;;
26540;SDS011;14206;50.202;10.948;2022-08-19T04:17:00;7.63;;;6.65;;
26540;SDS011;14206;50.202;10.948;2022-08-19T04:19:30;7.40;;;6.60;;
26540;SDS011;14206;50.202;10.948;2022-08-19T04:21:57;7.00;;;6.30;;
26540;SDS011;14206;50.202;10.948;2022-08-19T04:24:25;7.22;;;6.53;;
26540;SDS011;14206;50.202;10.948;2022-08-19T04:26:52;7.72;;;6.90;;
26540;SDS011;14206;50.202;10.948;2022-08-19T04:29:21;6.90;;;6.20;;
26540;SDS011;14206;50.202;10.948;2022-08-19T04:31:52;7.90;;;7.10;;
26540;SDS011;14206;50.202;10.948;2022-08-19T04:34:22;9.32;;;7.28;;
26540;SDS011;14206;50.202;10.948;2022-08-19T04:36:51;7.43;;;6.50;;
26540;SDS011;14206;50.202;10.948;2022-08-19T04:39:21;8.07;;;6.25;;
26540;SDS011;14206;50.202;10.948;2022-08-19T04:42:10;7.25;;;6.40;;
26540;SDS011;14206;50.202;10.948;2022-08-19T04:44:57;7.32;;;6.57;;
26540;SDS011;14206;50.202;10.948;2022-08-19T04:47:25;7.18;;;6.47;;
26540;SDS011;14206;50.202;10.948;2022-08-19T04:50:12;6.22;;;5.63;;
26540;SDS011;14206;50.202;10.948;2022-08-19T04:52:39;6.18;;;5.53;;
26540;SDS011;14206;50.202;10.948;2022-08-19T04:55:10;6.10;;;5.50;;
26540;SDS011;14206;50.202;10.948;2022-08-19T04:57:38;6.68;;;5.78;;
26540;SDS011;14206;50.202;10.948;2022-08-19T05:00:09;6.35;;;5.75;;
26540;SDS011;14206;50.202;10.948;2022-08-19T05:02:37;6.88;;;6.18;;
26540;SDS011;14206;50.202;10.948;2022-08-19T05:05:05;7.07;;;6.40;;
26540;SDS011;14206;50.202;10.948;2022-08-19T05:07:32;7.03;;;6.32;;
26540;SDS011;14206;50.202;10.948;2022-08-19T05:10:00;6.38;;;5.72;;
26540;SDS011;14206;50.202;10.948;2022-08-19T05:12:27;7.32;;;6.38;;
26540;SDS011;14206;50.202;10.948;2022-08-19T05:14:55;7.03;;;6.32;;
26540;SDS011;14206;50.202;10.948;2022-08-19T05:17:24;7.45;;;6.68;;
26540;SDS011;14206;50.202;10.948;2022-08-19T05:19:55;7.05;;;6.35;;
26540;SDS011;14206;50.202;10.948;2022-08-19T05:22:42;9.55;;;8.55;;
26540;SDS011;14206;50.202;10.948;2022-08-19T05:25:12;9.65;;;8.65;;
26540;SDS011;14206;50.202;10.948;2022-08-19T05:27:41;7.88;;;7.18;;
26540;SDS011;14206;50.202;10.948;2022-08-19T05:30:09;7.00;;;6.30;;
26540;SDS011;14206;50.202;10.948;2022-08-19T05:32:38;6.15;;;5.55;;
26540;SDS011;14206;50.202;10.948;2022-08-19T05:35:06;7.38;;;6.57;;
26540;SDS011;14206;50.202;10.948;2022-08-19T05:37:33;9.10;;;8.15;;
26540;SDS011;14206;50.202;10.948;2022-08-19T05:40:00;8.07;;;7.28;;
26540;SDS011;14206;50.202;10.948;2022-08-19T05:42:28;8.90;;;7.93;;
26540;SDS011;14206;50.202;10.948;2022-08-19T05:44:56;8.30;;;7.50;;
26540;SDS011;14206;50.202;10.948;2022-08-19T05:47:24;8.52;;;7.45;;
26540;SDS011;14206;50.202;10.948;2022-08-19T05:49:51;9.55;;;8.32;;
26540;SDS011;14206;50.202;10.948;2022-08-19T05:52:18;11.40;;;9.85;;
26540;SDS011;14206;50.202;10.948;2022-08-19T05:54:51;10.82;;;9.55;;
26540;SDS011;14206;50.202;10.948;2022-08-19T05:57:23;11.10;;;9.70;;
26540;SDS011;14206;50.202;10.948;2022-08-19T05:59:51;9.75;;;8.75;;
26540;SDS011;14206;50.202;10.948;2022-08-19T06:02:24;9.07;;;8.13;;
26540;SDS011;14206;50.202;10.948;2022-08-19T06:04:52;8.77;;;7.88;;
26540;SDS011;14206;50.202;10.948;2022-08-19T06:07:19;7.15;;;6.32;;
26540;SDS011;14206;50.202;10.948;2022-08-19T06:09:47;7.15;;;6.45;;
26540;SDS011;14206;50.202;10.948;2022-08-19T06:12:30;7.82;;;7.03;;
26540;SDS011;14206;50.202;10.948;2022-08-19T06:15:09;7.15;;;6.45;;
26540;SDS011;14206;50.202;10.948;2022-08-19T06:17:37;7.40;;;6.70;;
26540;SDS011;14206;50.202;10.948;2022-08-19T06:20:06;6.50;;;5.90;;
26540;SDS011;14206;50.202;10.948;2022-08-19T06:25:11;5.88;;;5.28;;
26540;SDS011;14206;50.202;10.948;2022-08-19T06:27:40;6.10;;;5.50;;
26540;SDS011;14206;50.202;10.948;2022-08-19T06:30:27;5.65;;;5.05;;
26540;SDS011;14206;50.202;10.948;2022-08-19T06:32:54;5.70;;;5.20;;
26540;SDS011;14206;50.202;10.948;2022-08-19T06:35:21;5.20;;;4.70;;
26540;SDS011;14206;50.202;10.948;2022-08-19T06:37:48;5.80;;;5.05;;
26540;SDS011;14206;50.202;10.948;2022-08-19T06:40:15;5.63;;;5.07;;
26540;SDS011;14206;50.202;10.948;2022-08-19T06:42:42;5.65;;;5.05;;
26540;SDS011;14206;50.202;10.948;2022-08-19T06:45:21;5.50;;;5.00;;
26540;SDS011;14206;50.202;10.948;2022-08-19T06:47:50;5.75;;;5.22;;
26540;SDS011;14206;50.202;10.948;2022-08-19T06:50:25;5.78;;;5.18;;
26540;SDS011;14206;50.202;10.948;2022-08-19T06:52:52;5.65;;;5.15;;
26540;SDS011;14206;50.202;10.948;2022-08-19T06:55:21;5.60;;;5.10;;
26540;SDS011;14206;50.202;10.948;2022-08-19T06:57:49;5.50;;;5.00;;
26540;SDS011;14206;50.202;10.948;2022-08-19T07:00:20;5.57;;;5.07;;
26540;SDS011;14206;50.202;10.948;2022-08-19T07:02:47;5.60;;;5.10;;
26540;SDS011;14206;50.202;10.948;2022-08-19T07:05:23;5.07;;;4.57;;
26540;SDS011;14206;50.202;10.948;2022-08-19T07:07:51;5.28;;;4.78;;
26540;SDS011;14206;50.202;10.948;2022-08-19T07:10:18;5.05;;;4.65;;
26540;SDS011;14206;50.202;10.948;2022-08-19T07:12:45;5.43;;;4.40;;
26540;SDS011;14206;50.202;10.948;2022-08-19T07:15:13;4.80;;;4.40;;
26540;SDS011;14206;50.202;10.948;2022-08-19T07:17:41;5.28;;;4.78;;
26540;SDS011;14206;50.202;10.948;2022-08-19T07:20:10;5.47;;;4.97;;
26540;SDS011;14206;50.202;10.948;2022-08-19T07:22:37;6.03;;;5.43;;
26540;SDS011;14206;50.202;10.948;2022-08-19T07:25:05;6.65;;;6.05;;
26540;SDS011;14206;50.202;10.948;2022-08-19T07:27:34;8.52;;;7.72;;
26540;SDS011;14206;50.202;10.948;2022-08-19T07:30:01;6.68;;;6.07;;
26540;SDS011;14206;50.202;10.948;2022-08-19T07:32:28;8.02;;;7.25;;
26540;SDS011;14206;50.202;10.948;2022-08-19T07:34:58;7.43;;;6.72;;
26540;SDS011;14206;50.202;10.948;2022-08-19T07:37:26;7.03;;;6.32;;
26540;SDS011;14206;50.202;10.948;2022-08-19T07:39:59;5.90;;;5.40;;
26540;SDS011;14206;50.202;10.948;2022-08-19T07:42:27;5.70;;;5.10;;
26540;SDS011;14206;50.202;10.948;2022-08-19T07:44:56;5.50;;;5.00;;
26540;SDS011;14206;50.202;10.948;2022-08-19T07:47:24;5.15;;;4.60;;
26540;SDS011;14206;50.202;10.948;2022-08-19T07:50:12;6.80;;;5.80;;
26540;SDS011;14206;50.202;10.948;2022-08-19T07:52:39;6.35;;;5.75;;
26540;SDS011;14206;50.202;10.948;2022-08-19T07:55:07;6.82;;;6.15;;
26540;SDS011;14206;50.202;10.948;2022-08-19T07:57:56;7.13;;;5.82;;
26540;SDS011;14206;50.202;10.948;2022-08-19T08:00:23;6.45;;;5.85;;
26540;SDS011;14206;50.202;10.948;2022-08-19T08:02:51;6.75;;;6.05;;
26540;SDS011;14206;50.202;10.948;2022-08-19T08:05:21;6.00;;;5.38;;
26540;SDS011;14206;50.202;10.948;2022-08-19T08:08:10;5.30;;;4.80;;
26540;SDS011;14206;50.202;10.948;2022-08-19T08:11:14;4.60;;;4.20;;
26540;SDS011;14206;50.202;10.948;2022-08-19T08:13:45;4.60;;;4.20;;
26540;SDS011;14206;50.202;10.948;2022-08-19T08:16:30;4.68;;;4.28;;
26540;SDS011;14206;50.202;10.948;2022-08-19T08:19:12;7.78;;;6.40;;
26540;SDS011;14206;50.202;10.948;2022-08-19T08:21:51;5.30;;;4.80;;
26540;SDS011;14206;50.202;10.948;2022-08-19T08:24:20;4.70;;;4.30;;
26540;SDS011;14206;50.202;10.948;2022-08-19T08:26:47;4.75;;;4.30;;
26540;SDS011;14206;50.202;10.948;2022-08-19T08:29:22;5.40;;;4.90;;
26540;SDS011;14206;50.202;10.948;2022-08-19T08:31:51;4.88;;;4.47;;
26540;SDS011;14206;50.202;10.948;2022-08-19T08:34:25;5.47;;;4.90;;
26540;SDS011;14206;50.202;10.948;2022-08-19T08:36:52;5.78;;;5.07;;
26540;SDS011;14206;50.202;10.948;2022-08-19T08:39:20;5.60;;;5.10;;
26540;SDS011;14206;50.202;10.948;2022-08-19T08:41:52;4.85;;;4.45;;
26540;SDS011;14206;50.202;10.948;2022-08-19T08:44:26;5.47;;;4.60;;
26540;SDS011;14206;50.202;10.948;2022-08-19T08:47:26;4.57;;;4.18;;
26540;SDS011;14206;50.202;10.948;2022-08-19T08:52:28;4.95;;;4.47;;
26540;SDS011;14206;50.202;10.948;2022-08-19T08:55:06;4.55;;;4.15;;
26540;SDS011;14206;50.202;10.948;2022-08-19T09:00:39;4.78;;;4.10;;
26540;SDS011;14206;50.202;10.948;2022-08-19T09:03:10;4.50;;;4.10;;
26540;SDS011;14206;50.202;10.948;2022-08-19T09:06:00;5.35;;;4.85;;
26540;SDS011;14206;50.202;10.948;2022-08-19T09:14:53;6.68;;;5.90;;
26540;SDS011;14206;50.202;10.948;2022-08-19T09:17:25;6.68;;;5.97;;
26540;SDS011;14206;50.202;10.948;2022-08-19T09:20:06;5.43;;;4.93;;
26540;SDS011;14206;50.202;10.948;2022-08-19T09:22:48;8.18;;;7.03;;
26540;SDS011;14206;50.202;10.948;2022-08-19T09:25:17;6.03;;;5.50;;
26540;SDS011;14206;50.202;10.948;2022-08-19T09:27:55;6.00;;;5.40;;
26540;SDS011;14206;50.202;10.948;2022-08-19T09:30:39;6.38;;;5.78;;
26540;SDS011;14206;50.202;10.948;2022-08-19T09:33:07;6.10;;;5.60;;
26540;SDS011;14206;50.202;10.948;2022-08-19T09:35:34;5.75;;;5.00;;
26540;SDS011;14206;50.202;10.948;2022-08-19T09:38:18;7.63;;;6.87;;
26540;SDS011;14206;50.202;10.948;2022-08-19T09:40:46;6.25;;;5.65;;
26540;SDS011;14206;50.202;10.948;2022-08-19T09:43:13;6.25;;;5.63;;
26540;SDS011;14206;50.202;10.948;2022-08-19T09:45:58;5.70;;;5.20;;
26540;SDS011;14206;50.202;10.948;2022-08-19T09:48:26;6.03;;;5.43;;
26540;SDS011;14206;50.202;10.948;2022-08-19T09:50:53;5.82;;;5.32;;
26540;SDS011;14206;50.202;10.948;2022-08-19T09:53:20;6.40;;;5.80;;
26540;SDS011;14206;50.202;10.948;2022-08-19T09:55:51;6.82;;;6.13;;
26540;SDS011;14206;50.202;10.948;2022-08-19T09:58:18;6.45;;;5.85;;
26540;SDS011;14206;50.202;10.948;2022-08-19T10:00:51;6.38;;;5.78;;
26540;SDS011;14206;50.202;10.948;2022-08-19T10:03:20;6.28;;;5.68;;
26540;SDS011;14206;50.202;10.948;2022-08-19T10:05:52;6.15;;;4.72;;
26540;SDS011;14206;50.202;10.948;2022-08-19T10:08:25;5.20;;;4.70;;
26540;SDS011;14206;50.202;10.948;2022-08-19T10:10:54;4.53;;;4.13;;
26540;SDS011;14206;50.202;10.948;2022-08-19T10:13:45;5.00;;;4.50;;
26540;SDS011;14206;50.202;10.948;2022-08-19T10:16:14;4.85;;;4.32;;
26540;SDS011;14206;50.202;10.948;2022-08-19T10:18:44;4.72;;;4.32;;
26540;SDS011;14206;50.202;10.948;2022-08-19T10:21:22;4.00;;;3.70;;
26540;SDS011;14206;50.202;10.948;2022-08-19T10:23:56;4.60;;;4.20;;
26540;SDS011;14206;50.202;10.948;2022-08-19T10:26:27;4.55;;;4.10;;
26540;SDS011;14206;50.202;10.948;2022-08-19T10:28:56;4.40;;;4.00;;
26540;SDS011;14206;50.202;10.948;2022-08-19T10:31:25;3.80;;;3.50;;
26540;SDS011;14206;50.202;10.948;2022-08-19T10:34:15;4.22;;;3.88;;
26540;SDS011;14206;50.202;10.948;2022-08-19T10:36:53;4.20;;;3.80;;
26540;SDS011;14206;50.202;10.948;2022-08-19T10:39:21;4.05;;;3.65;;
26540;SDS011;14206;50.202;10.948;2022-08-19T10:41:55;3.58;;;3.28;;
26540;SDS011;14206;50.202;10.948;2022-08-19T10:44:23;3.60;;;3.30;;
26540;SDS011;14206;50.202;10.948;2022-08-19T10:46:57;3.67;;;3.30;;
26540;SDS011;14206;50.202;10.948;2022-08-19T10:49:25;3.95;;;3.63;;
26540;SDS011;14206;50.202;10.948;2022-08-19T10:51:53;4.65;;;3.80;;
26540;SDS011;14206;50.202;10.948;2022-08-19T10:54:46;3.10;;;2.90;;
26540;SDS011;14206;50.202;10.948;2022-08-19T10:57:34;3.97;;;3.67;;
26540;SDS011;14206;50.202;10.948;2022-08-19T11:00:21;4.07;;;3.72;;
26540;SDS011;14206;50.202;10.948;2022-08-19T11:02:50;4.88;;;3.55;;
26540;SDS011;14206;50.202;10.948;2022-08-19T11:05:18;4.60;;;3.83;;
26540;SDS011;14206;50.202;10.948;2022-08-19T11:07:45;3.30;;;3.00;;
26540;SDS011;14206;50.202;10.948;2022-08-19T11:10:13;3.40;;;3.10;;
26540;SDS011;14206;50.202;10.948;2022-08-19T11:12:46;4.75;;;3.95;;
26540;SDS011;14206;50.202;10.948;2022-08-19T11:15:14;3.50;;;3.20;;
26540;SDS011;14206;50.202;10.948;2022-08-19T11:17:42;3.53;;;3.22;;
26540;SDS011;14206;50.202;10.948;2022-08-19T11:20:13;3.90;;;3.60;;
26540;SDS011;14206;50.202;10.948;2022-08-19T11:22:41;3.58;;;3.28;;
26540;SDS011;14206;50.202;10.948;2022-08-19T11:25:09;3.67;;;3.38;;
26540;SDS011;14206;50.202;10.948;2022-08-19T11:27:40;2.92;;;2.72;;
26540;SDS011;14206;50.202;10.948;2022-08-19T11:30:09;3.60;;;3.30;;
26540;SDS011;14206;50.202;10.948;2022-08-19T11:32:39;4.00;;;3.60;;
26540;SDS011;14206;50.202;10.948;2022-08-19T11:35:14;4.05;;;3.70;;
26540;SDS011;14206;50.202;10.948;2022-08-19T11:37:41;3.60;;;3.30;;
26540;SDS011;14206;50.202;10.948;2022-08-19T11:40:08;3.58;;;3.28;;
26540;SDS011;14206;50.202;10.948;2022-08-19T11:42:35;3.85;;;3.50;;
26540;SDS011;14206;50.202;10.948;2022-08-19T11:45:22;4.07;;;3.67;;
26540;SDS011;14206;50.202;10.948;2022-08-19T11:47:50;3.67;;;3.20;;
26540;SDS011;14206;50.202;10.948;2022-08-19T11:50:17;4.22;;;3.58;;
26540;SDS011;14206;50.202;10.948;2022-08-19T11:52:45;4.18;;;2.65;;
26540;SDS011;14206;50.202;10.948;2022-08-19T11:55:13;2.97;;;2.78;;
26540;SDS011;14206;50.202;10.948;2022-08-19T11:57:40;2.75;;;2.40;;
26540;SDS011;14206;50.202;10.948;2022-08-19T12:00:09;3.38;;;2.40;;
26540;SDS011;14206;50.202;10.948;2022-08-19T12:02:39;2.78;;;2.10;;
26540;SDS011;14206;50.202;10.948;2022-08-19T12:05:06;2.10;;;1.90;;
26540;SDS011;14206;50.202;10.948;2022-08-19T12:07:38;1.60;;;1.50;;
26540;SDS011;14206;50.202;10.948;2022-08-19T12:10:07;1.27;;;1.17;;
26540;SDS011;14206;50.202;10.948;2022-08-19T12:12:36;1.33;;;1.23;;
26540;SDS011;14206;50.202;10.948;2022-08-19T12:15:09;1.60;;;1.50;;
26540;SDS011;14206;50.202;10.948;2022-08-19T12:17:37;1.40;;;1.30;;
26540;SDS011;14206;50.202;10.948;2022-08-19T12:20:04;1.10;;;1.00;;
26540;SDS011;14206;50.202;10.948;2022-08-19T12:22:32;1.52;;;1.27;;
26540;SDS011;14206;50.202;10.948;2022-08-19T12:24:59;1.20;;;1.10;;
26540;SDS011;14206;50.202;10.948;2022-08-19T12:27:27;1.40;;;1.30;;
26540;SDS011;14206;50.202;10.948;2022-08-19T12:30:07;1.67;;;1.35;;
26540;SDS011;14206;50.202;10.948;2022-08-19T12:32:37;1.30;;;1.20;;
26540;SDS011;14206;50.202;10.948;2022-08-19T12:35:05;1.48;;;1.38;;
26540;SDS011;14206;50.202;10.948;2022-08-19T12:37:33;1.55;;;1.45;;
26540;SDS011;14206;50.202;10.948;2022-08-19T12:40:00;1.90;;;1.30;;
26540;SDS011;14206;50.202;10.948;2022-08-19T12:42:29;1.38;;;1.27;;
26540;SDS011;14206;50.202;10.948;2022-08-19T12:44:56;1.50;;;1.30;;
26540;SDS011;14206;50.202;10.948;2022-08-19T12:47:23;1.60;;;1.40;;
26540;SDS011;14206;50.202;10.948;2022-08-19T12:49:52;1.67;;;1.20;;
26540;SDS011;14206;50.202;10.948;2022-08-19T12:52:22;1.50;;;1.40;;
26540;SDS011;14206;50.202;10.948;2022-08-19T12:54:51;1.60;;;1.30;;
26540;SDS011;14206;50.202;10.948;2022-08-19T12:57:24;1.40;;;1.30;;
26540;SDS011;14206;50.202;10.948;2022-08-19T13:00:08;1.40;;;1.30;;
26540;SDS011;14206;50.202;10.948;2022-08-19T13:02:41;0.90;;;0.90;;
26540;SDS011;14206;50.202;10.948;2022-08-19T13:05:16;1.10;;;1.00;;
26540;SDS011;14206;50.202;10.948;2022-08-19T13:07:49;1.27;;;1.17;;
26540;SDS011;14206;50.202;10.948;2022-08-19T13:10:19;1.55;;;1.35;;
26540;SDS011;14206;50.202;10.948;2022-08-19T13:12:48;4.72;;;1.90;;
26540;SDS011;14206;50.202;10.948;2022-08-19T13:15:18;1.23;;;1.13;;
26540;SDS011;14206;50.202;10.948;2022-08-19T13:17:50;3.03;;;1.40;;
26540;SDS011;14206;50.202;10.948;2022-08-19T13:20:20;1.40;;;1.30;;
26540;SDS011;14206;50.202;10.948;2022-08-19T13:22:48;1.92;;;1.67;;
26540;SDS011;14206;50.202;10.948;2022-08-19T13:25:15;2.70;;;2.05;;
26540;SDS011;14206;50.202;10.948;2022-08-19T13:27:45;1.90;;;1.60;;
26540;SDS011;14206;50.202;10.948;2022-08-19T13:30:14;1.50;;;1.30;;
26540;SDS011;14206;50.202;10.948;2022-08-19T13:33:01;1.20;;;1.10;;
26540;SDS011;14206;50.202;10.948;2022-08-19T13:35:46;1.52;;;1.10;;
26540;SDS011;14206;50.202;10.948;2022-08-19T13:38:16;1.67;;;1.35;;
26540;SDS011;14206;50.202;10.948;2022-08-19T13:40:46;1.17;;;1.10;;
26540;SDS011;14206;50.202;10.948;2022-08-19T13:43:17;2.72;;;1.27;;
26540;SDS011;14206;50.202;10.948;2022-08-19T13:45:52;1.20;;;1.10;;
26540;SDS011;14206;50.202;10.948;2022-08-19T13:48:23;1.48;;;1.38;;
26540;SDS011;14206;50.202;10.948;2022-08-19T13:50:53;1.30;;;1.20;;
26540;SDS011;14206;50.202;10.948;2022-08-19T13:53:20;1.27;;;1.13;;
26540;SDS011;14206;50.202;10.948;2022-08-19T13:55:47;1.33;;;1.17;;
26540;SDS011;14206;50.202;10.948;2022-08-19T13:58:14;1.60;;;1.45;;
26540;SDS011;14206;50.202;10.948;2022-08-19T14:00:43;2.72;;;1.30;;
26540;SDS011;14206;50.202;10.948;2022-08-19T14:03:11;1.27;;;1.10;;
26540;SDS011;14206;50.202;10.948;2022-08-19T14:05:44;1.58;;;1.48;;
26540;SDS011;14206;50.202;10.948;2022-08-19T14:08:12;1.30;;;1.20;;
26540;SDS011;14206;50.202;10.948;2022-08-19T14:10:40;1.10;;;1.08;;
26540;SDS011;14206;50.202;10.948;2022-08-19T14:13:12;1.00;;;1.00;;
26540;SDS011;14206;50.202;10.948;2022-08-19T14:15:41;1.00;;;0.95;;
26540;SDS011;14206;50.202;10.948;2022-08-19T14:18:08;1.30;;;1.20;;
26540;SDS011;14206;50.202;10.948;2022-08-19T14:20:35;1.13;;;1.00;;
26540;SDS011;14206;50.202;10.948;2022-08-19T14:23:02;1.45;;;1.35;;
26540;SDS011;14206;50.202;10.948;2022-08-19T14:25:32;1.20;;;1.10;;
26540;SDS011;14206;50.202;10.948;2022-08-19T14:28:00;1.40;;;1.30;;
26540;SDS011;14206;50.202;10.948;2022-08-19T14:30:28;1.58;;;1.48;;
26540;SDS011;14206;50.202;10.948;2022-08-19T14:32:58;1.35;;;1.23;;
26540;SDS011;14206;50.202;10.948;2022-08-19T14:35:27;1.48;;;1.30;;
26540;SDS011;14206;50.202;10.948;2022-08-19T14:37:55;1.92;;;1.38;;
26540;SDS011;14206;50.202;10.948;2022-08-19T14:40:25;1.42;;;1.30;;
26540;SDS011;14206;50.202;10.948;2022-08-19T14:42:54;1.10;;;1.10;;
26540;SDS011;14206;50.202;10.948;2022-08-19T14:45:26;1.30;;;1.20;;
26540;SDS011;14206;50.202;10.948;2022-08-19T14:47:54;1.17;;;1.10;;
26540;SDS011;14206;50.202;10.948;2022-08-19T14:50:21;1.38;;;1.27;;
26540;SDS011;14206;50.202;10.948;2022-08-19T14:52:48;1.65;;;1.38;;
26540;SDS011;14206;50.202;10.948;2022-08-19T14:55:16;1.20;;;1.10;;
26540;SDS011;14206;50.202;10.948;2022-08-19T14:57:44;1.30;;;1.20;;
26540;SDS011;14206;50.202;10.948;2022-08-19T15:00:12;1.42;;;1.30;;
26540;SDS011;14206;50.202;10.948;2022-08-19T15:02:40;1.80;;;1.15;;
26540;SDS011;14206;50.202;10.948;2022-08-19T15:05:07;1.85;;;1.23;;
26540;SDS011;14206;50.202;10.948;2022-08-19T15:07:35;1.25;;;1.00;;
26540;SDS011;14206;50.202;10.948;2022-08-19T15:10:03;1.13;;;1.10;;
26540;SDS011;14206;50.202;10.948;2022-08-19T15:12:36;1.52;;;1.42;;